WetterOnline ( https://www.wetteronline.de )

Wetter aktuell Bietigheim-Bissingen

Aktuelles Wetter: Mühlacker (245m)

6-stündlich | Neueste Meldungen
Ortszeit Temperatur Wetter
Sa, 02.03. 7:00 1.0° C wolkig
Sa, 02.03. 1:00 3.6° C bedeckt
Fr, 01.03. 19:00 6.6° C bedeckt
Fr, 01.03. 13:00 9.1° C bedeckt
Fr, 01.03. 7:00 3.2° C Sprühregen
Fr, 01.03. 1:00 1.6° C bedeckt
Do, 29.02. 19:00 6.3° C wolkenlos
Do, 29.02. 13:00 11.0° C leicht bewölkt
Ortszeit Temperatur Wetter
Sa, 02.03. 7:30 1.1° C bedeckt
Sa, 02.03. 7:20 1.1° C Dunst
Sa, 02.03. 7:10 1.0° C Dunst
Sa, 02.03. 7:00 1.0° C wolkig
Sa, 02.03. 6:50 1.0° C Dunst
Sa, 02.03. 6:40 1.0° C Dunst
Sa, 02.03. 6:30 1.9° C bedeckt
Sa, 02.03. 6:00 0.5° C wolkig
Sa, 02.03. 5:30 0.3° C bedeckt
Sa, 02.03. 5:00 0.2° C bewölkt
Sa, 02.03. 4:30 0.2° C wolkig
Ortszeit Relative Feuchte Sichtweite
Sa, 02.03. 7:00 96% 4.5 km
Sa, 02.03. 1:00 95% 7 km
Fr, 01.03. 19:00 85% 60 km
Fr, 01.03. 13:00 72% 30 km
Fr, 01.03. 7:00 94% 6 km
Fr, 01.03. 1:00 94% 6 km
Do, 29.02. 19:00 81% 30 km
Do, 29.02. 13:00 59% 22 km
Ortszeit Relative Feuchte Sichtweite
Sa, 02.03. 7:30 96% 3.8 km
Sa, 02.03. 7:20 96% -
Sa, 02.03. 7:10 96% -
Sa, 02.03. 7:00 96% 4.5 km
Sa, 02.03. 6:50 96% -
Sa, 02.03. 6:40 96% -
Sa, 02.03. 6:30 98% 6 km
Sa, 02.03. 6:00 97% 4.2 km
Sa, 02.03. 5:30 96% 3.7 km
Sa, 02.03. 5:00 96% 5.0 km
Sa, 02.03. 4:30 95% 4.3 km
Ortszeit Niederschlagsmenge Niederschlagsart
Sa, 02.03. 7:00 0.0 l/m2 in 12 Std. -
Sa, 02.03. 1:00 0.0 l/m2 in 6 Std. -
Fr, 01.03. 19:00 0.1 l/m2 in 12 Std. -
Fr, 01.03. 13:00 0.1 l/m2 in 6 Std. Regen
Fr, 01.03. 7:00 0.1 l/m2 in 12 Std. Regen
Fr, 01.03. 1:00 0.0 l/m2 in 6 Std. -
Do, 29.02. 19:00 0.0 l/m2 in 12 Std. -
Do, 29.02. 13:00 0.0 l/m2 in 6 Std. -
Ortszeit Niederschlagsmenge Niederschlagsart
Sa, 02.03. 7:30 0.0 l/m2 in 30 Min -
Sa, 02.03. 7:20 keine Meldung -
Sa, 02.03. 7:10 keine Meldung -
Sa, 02.03. 7:00 0.0 l/m2 in 1 Std. -
Sa, 02.03. 6:50 keine Meldung -
Sa, 02.03. 6:40 keine Meldung -
Sa, 02.03. 6:30 0.0 l/m2 in 30 Min -
Sa, 02.03. 6:00 0.0 l/m2 in 1 Std. -
Sa, 02.03. 5:30 0.0 l/m2 in 30 Min -
Sa, 02.03. 5:00 0.0 l/m2 in 1 Std. -
Sa, 02.03. 4:30 0.0 l/m2 in 30 Min -
Ortszeit Stärke Spitze Richtung
km/h Bft. km/h Grad Sektor
Sa, 02.03. 7:00 4 1 11 130° SO
Sa, 02.03. 1:00 4 1 11 90° O
Fr, 01.03. 19:00 4 1 22 100° O
Fr, 01.03. 13:00 11 2 17 290° W
Fr, 01.03. 7:00 4 1 14 130° SO
Fr, 01.03. 1:00 0 0 14 - -
Do, 29.02. 19:00 4 1 18 100° O
Do, 29.02. 13:00 4 1 14 170° S
Ortszeit Stärke Spitze Richtung
km/h Bft. km/h Grad Sektor
Sa, 02.03. 7:30 4 1 7 130° SO
Sa, 02.03. 7:20 4 1 - 130° SO
Sa, 02.03. 7:10 4 1 - 120° SO
Sa, 02.03. 7:00 4 1 11 130° SO
Sa, 02.03. 6:50 4 1 - 130° SO
Sa, 02.03. 6:40 6 1 - 130° SO
Sa, 02.03. 6:30 7 2 11 130° SO
Sa, 02.03. 6:00 4 1 11 130° SO
Sa, 02.03. 5:30 6 1 9 130° SO
Sa, 02.03. 5:00 4 1 7 130° SO
Sa, 02.03. 4:30 4 1 7 120° SO
Ortszeit Untergrenze Bedeckung Gattung
total tief tief mittel hoch
Sa, 02.03. 7:00 2400 m 8/8 1/8 - - -
Sa, 02.03. 1:00 4800 m 8/8 8/8 - - -
Fr, 01.03. 19:00 3000 m 8/8 8/8 - - -
Fr, 01.03. 13:00 810 m 8/8 8/8 - - -
Fr, 01.03. 7:00 1470 m 8/8 8/8 - - -
Fr, 01.03. 1:00 3000 m 8/8 8/8 - - -
Do, 29.02. 19:00 - 0/8 0/8 - - -
Do, 29.02. 13:00 10500 m 6/8 0/8 - - -
Ortszeit Bedeckungsgrad in Achtel und Wolkenuntergrenze
Sa, 02.03. 7:30 8(6000m)
Sa, 02.03. 7:20 8(6000m)
Sa, 02.03. 7:10 8
Sa, 02.03. 7:00 1(2400m) 8(6300m)
Sa, 02.03. 6:50 1(2400m) 8(6300m)
Sa, 02.03. 6:40 8
Sa, 02.03. 6:30 8(2400m) 8(6300m)
Sa, 02.03. 6:00 2(2400m) 7(6000m) 8(6900m)
Sa, 02.03. 5:30 8(5700m) 8(7200m) 8(9000m)
Sa, 02.03. 5:00 5(5400m) 7(6900m) 8(9000m)
Sa, 02.03. 4:30 1(6300m) 5(8700m) 8(9000m)
Ortszeit Luftdruck NN (hPa) Tendenz (hPa in 3 Std.)
Sa, 02.03. 7:00 1006 + 0,2
Sa, 02.03. 1:00 1007 - 0,5
Fr, 01.03. 19:00 1007 - 0,2
Fr, 01.03. 13:00 1008 + 0,1
Fr, 01.03. 7:00 1009 + 1,0
Fr, 01.03. 1:00 1009 - 0,6
Do, 29.02. 19:00 1010 - 1,7
Do, 29.02. 13:00 1014 - 2,9
Ortszeit Luftdruck NN (hPa) Tendenz (hPa in 3 Std.)
Sa, 02.03. 7:30 1006 + 0,2
Sa, 02.03. 7:20 1006 keine Meldung
Sa, 02.03. 7:10 1007 keine Meldung
Sa, 02.03. 7:00 1006 + 0,2
Sa, 02.03. 6:50 1006 keine Meldung
Sa, 02.03. 6:40 1006 keine Meldung
Sa, 02.03. 6:30 1006 - 0,2
Sa, 02.03. 6:00 1006 - 0,3
Sa, 02.03. 5:30 1006 - 0,5
Sa, 02.03. 5:00 1006 - 0,5
Sa, 02.03. 4:30 1006 - 0,5
Ortszeit Schneehöhe (cm)
Sa, 02.03. 7:00 0
Sa, 02.03. 1:00 0
Fr, 01.03. 19:00 0
Fr, 01.03. 13:00 0
Fr, 01.03. 7:00 0
Fr, 01.03. 1:00 0
Do, 29.02. 19:00 0
Do, 29.02. 13:00 0
Ortszeit Schneehöhe (cm)
Sa, 02.03. 7:30 0
Sa, 02.03. 7:20 0
Sa, 02.03. 7:10 -
Sa, 02.03. 7:00 0
Sa, 02.03. 6:50 0
Sa, 02.03. 6:40 -
Sa, 02.03. 6:30 0
Sa, 02.03. 6:00 0
Sa, 02.03. 5:30 0
Sa, 02.03. 5:00 0
Sa, 02.03. 4:30 0
Link zu dieser Seite / Seite empfehlen

Das Wetter in ...